Time;durP1;ratioP1;P1;durP2;ratioP2;P2;SDS_P1;SDS_P2;PMS_P1;PMS_P2;Temp;Humidity;BMP_temperature;BMP_pressure;BME280_temperature;BME280_humidity;BME280_pressure;Samples;Min_cycle;Max_cycle;Signal;HPM_P1;HPM_P2
2022/05/26 00:02:19;;;;;;;12.52;7.40;;;19.10;99.90;;;;;;5071773;28;20068;-77
2022/05/26 00:04:46;;;;;;;13.65;7.47;;;19.10;99.90;;;;;;5071910;28;20124;-77
2022/05/26 00:07:14;;;;;;;14.13;7.20;;;19.10;99.90;;;;;;5073203;28;20036;-77
2022/05/26 00:09:43;;;;;;;11.60;6.85;;;19.00;99.90;;;;;;5073145;28;20499;-77
2022/05/26 00:12:11;;;;;;;13.68;7.43;;;19.00;99.90;;;;;;5069197;28;20044;-77
2022/05/26 00:14:39;;;;;;;13.38;7.78;;;19.00;99.90;;;;;;5059760;28;20454;-77
2022/05/26 00:17:07;;;;;;;15.40;7.68;;;19.10;99.90;;;;;;5073347;28;20040;-77
2022/05/26 00:19:35;;;;;;;11.82;7.00;;;19.00;99.90;;;;;;5064359;28;20049;-77
2022/05/26 00:22:02;;;;;;;13.70;6.97;;;19.00;99.90;;;;;;5068505;28;20051;-77
2022/05/26 00:24:30;;;;;;;13.88;6.82;;;18.90;99.90;;;;;;5064583;28;20037;-77
2022/05/26 00:26:58;;;;;;;9.63;7.10;;;18.90;99.90;;;;;;5065046;28;20131;-77
2022/05/26 00:29:26;;;;;;;14.73;6.78;;;18.90;99.90;;;;;;5076267;28;20048;-77
2022/05/26 00:31:53;;;;;;;14.52;6.72;;;18.90;99.90;;;;;;5076784;28;20045;-77
2022/05/26 00:34:21;;;;;;;9.93;6.85;;;18.80;99.90;;;;;;5076538;28;20045;-77
2022/05/26 00:36:49;;;;;;;8.73;6.47;;;18.80;99.90;;;;;;5071506;28;20037;-77
2022/05/26 00:39:18;;;;;;;13.23;7.15;;;18.70;99.90;;;;;;5056652;28;20045;-77
2022/05/26 00:41:48;;;;;;;9.82;6.55;;;18.70;99.90;;;;;;5055999;28;20475;-77
2022/05/26 00:44:17;;;;;;;13.55;7.13;;;18.70;99.90;;;;;;5056494;28;20044;-77
2022/05/26 00:46:50;;;;;;;11.95;7.00;;;18.70;99.90;;;;;;5056531;28;20040;-77
2022/05/26 00:49:24;;;;;;;10.18;6.50;;;18.60;99.90;;;;;;5056461;28;20051;-77
2022/05/26 00:51:52;;;;;;;12.38;6.65;;;18.50;99.90;;;;;;5062808;28;20410;-77
2022/05/26 00:54:23;;;;;;;12.35;6.35;;;18.50;99.90;;;;;;5067643;28;20037;-77
2022/05/26 00:56:55;;;;;;;9.27;6.53;;;18.50;99.90;;;;;;5076201;28;20097;-77
2022/05/26 00:59:31;;;;;;;12.75;6.70;;;18.50;99.90;;;;;;5075623;28;20101;-77
2022/05/26 01:01:59;;;;;;;;;;;18.50;99.90;;;;;;5075390;28;20045;-76
2022/05/26 01:04:32;;;;;;;8.77;6.20;;;18.50;99.90;;;;;;5076320;28;19974;-77
2022/05/26 01:07:07;;;;;;;13.15;6.03;;;18.60;99.90;;;;;;5075045;28;20051;-77
2022/05/26 01:09:35;;;;;;;8.82;5.35;;;18.60;99.90;;;;;;5076750;28;20483;-77
2022/05/26 01:12:02;;;;;;;11.75;5.90;;;18.60;99.90;;;;;;5075307;28;20049;-77
2022/05/26 01:14:34;;;;;;;42.22;28.08;;;18.60;99.90;;;;;;5075987;28;20037;-77
2022/05/26 01:17:12;;;;;;;8.63;6.80;;;18.70;99.90;;;;;;5076193;28;20048;-77
2022/05/26 01:20:16;;;;;;;5.90;5.07;;;18.70;99.90;;;;;;5076011;28;20052;-77
2022/05/26 01:23:29;;;;;;;11.43;6.30;;;18.70;99.90;;;;;;5073151;28;20053;-77
2022/05/26 01:26:30;;;;;;;14.27;9.75;;;18.90;99.90;;;;;;5014462;28;20105;-77
2022/05/26 01:29:40;;;;;;;18.50;11.30;;;18.90;99.90;;;;;;5006505;28;20057;-76
2022/05/26 01:32:16;;;;;;;12.60;6.65;;;18.90;99.90;;;;;;5075901;28;20053;-77
2022/05/26 01:34:54;;;;;;;8.32;5.47;;;18.90;99.90;;;;;;5073965;28;20052;-76
2022/05/26 01:37:31;;;;;;;7.95;4.32;;;19.00;99.90;;;;;;5066068;28;20045;-76
2022/05/26 01:40:07;;;;;;;7.20;4.60;;;19.00;99.90;;;;;;5055698;28;20044;-76
2022/05/26 01:42:46;;;;;;;9.93;4.35;;;18.90;99.90;;;;;;5054060;28;20056;-76
2022/05/26 01:45:20;;;;;;;5.88;4.32;;;18.90;99.90;;;;;;5056593;28;20400;-76
2022/05/26 01:47:57;;;;;;;6.22;4.30;;;18.90;99.90;;;;;;5054688;28;20098;-76
2022/05/26 01:50:31;;;;;;;7.18;3.55;;;18.90;99.90;;;;;;5062077;28;20500;-77
2022/05/26 01:53:11;;;;;;;6.25;3.20;;;18.80;99.90;;;;;;5066784;28;20530;-77
2022/05/26 01:55:47;;;;;;;4.50;2.88;;;18.80;99.90;;;;;;5073842;28;20424;-77
2022/05/26 01:58:22;;;;;;;6.05;3.40;;;18.70;99.90;;;;;;5075280;28;20165;-76
2022/05/26 02:00:50;;;;;;;5.32;3.60;;;18.70;99.90;;;;;;5075398;28;20492;-77
2022/05/26 02:03:22;;;;;;;6.00;3.28;;;18.80;99.90;;;;;;5074723;28;20052;-77
2022/05/26 02:05:53;;;;;;;5.78;3.15;;;18.80;99.90;;;;;;5073998;28;20067;-77
2022/05/26 02:08:25;;;;;;;7.93;3.10;;;18.80;99.90;;;;;;5075102;28;20037;-77
2022/05/26 02:10:56;;;;;;;4.05;2.67;;;18.90;99.90;;;;;;5074845;28;20071;-76
2022/05/26 02:13:29;;;;;;;4.18;2.83;;;19.00;99.90;;;;;;5074769;28;20045;-79
2022/05/26 02:16:01;;;;;;;4.90;2.30;;;19.00;99.90;;;;;;5073553;28;20041;-77
2022/05/26 02:18:34;;;;;;;3.58;2.00;;;19.00;99.90;;;;;;5074644;28;20041;-77
2022/05/26 02:21:07;;;;;;;6.68;1.95;;;19.10;99.90;;;;;;5074838;28;20044;-77
2022/05/26 02:23:38;;;;;;;3.00;1.73;;;19.10;99.90;;;;;;5074396;28;20083;-77
2022/05/26 02:26:06;;;;;;;7.40;2.15;;;19.10;99.90;;;;;;5073551;28;20047;-77
2022/05/26 02:29:51;;;;;;;3.40;2.00;;;19.10;99.90;;;;;;5074992;28;20044;-77
2022/05/26 02:31:28;;;;;;;2.80;2.15;;;19.20;99.90;;;;;;5074364;28;20051;-77
2022/05/26 02:34:00;;;;;;;3.85;2.30;;;19.20;99.90;;;;;;5074499;28;20418;-77
2022/05/26 02:36:30;;;;;;;3.28;1.73;;;19.20;99.90;;;;;;5072219;28;20044;-77
2022/05/26 02:38:58;;;;;;;3.75;1.55;;;19.30;99.90;;;;;;5053431;28;20041;-77
2022/05/26 02:41:26;;;;;;;3.65;1.77;;;19.30;99.90;;;;;;5054330;28;20041;-77
2022/05/26 02:43:54;;;;;;;2.97;1.33;;;19.30;99.90;;;;;;5054078;28;20037;-77
2022/05/26 02:46:35;;;;;;;3.13;1.20;;;19.30;99.90;;;;;;5053046;28;20045;-77
2022/05/26 02:49:15;;;;;;;1.75;1.10;;;19.30;99.90;;;;;;5054223;28;20051;-77
2022/05/26 02:51:50;;;;;;;1.70;0.90;;;19.40;99.90;;;;;;5054176;28;20052;-77
2022/05/26 02:54:27;;;;;;;1.93;1.10;;;19.40;99.90;;;;;;5054016;28;20056;-77
2022/05/26 02:57:09;;;;;;;3.20;1.30;;;19.40;99.90;;;;;;5054030;28;20284;-77
2022/05/26 02:59:44;;;;;;;2.83;1.25;;;19.40;99.90;;;;;;5053960;28;20492;-78
2022/05/26 03:02:16;;;;;;;2.22;1.00;;;19.40;99.90;;;;;;5053763;28;20061;-77
2022/05/26 03:04:50;;;;;;;2.05;1.35;;;19.40;99.90;;;;;;5054105;28;20044;-77
2022/05/26 03:07:23;;;;;;;4.32;1.70;;;19.40;99.90;;;;;;5053955;28;20048;-77
2022/05/26 03:09:51;;;;;;;7.80;3.83;;;19.40;99.90;;;;;;5053767;28;20443;-77
2022/05/26 03:12:24;;;;;;;18.27;11.30;;;19.40;99.90;;;;;;5053527;28;20565;-77
2022/05/26 03:14:51;;;;;;;24.83;14.18;;;19.40;99.90;;;;;;5053547;28;20579;-77
2022/05/26 03:17:19;;;;;;;34.60;21.63;;;19.40;99.90;;;;;;5053694;28;20044;-76
2022/05/26 03:19:48;;;;;;;30.33;17.58;;;19.50;99.90;;;;;;5053978;28;20041;-75
2022/05/26 03:22:16;;;;;;;32.65;16.67;;;19.50;99.90;;;;;;5052107;28;20052;-77
2022/05/26 03:24:43;;;;;;;26.65;13.95;;;19.50;99.90;;;;;;5053299;28;20044;-77
2022/05/26 03:27:11;;;;;;;25.90;14.27;;;19.50;99.90;;;;;;5053416;28;20045;-77
2022/05/26 03:29:39;;;;;;;24.38;13.85;;;19.50;99.90;;;;;;5053529;28;20554;-77
2022/05/26 03:32:07;;;;;;;28.17;13.80;;;19.50;99.90;;;;;;5053153;28;20070;-77
2022/05/26 03:42:52;;;;;;;56.60;32.25;;;19.60;99.90;;;;;;5054263;28;20056;-77
2022/05/26 03:45:22;;;;;;;59.17;33.10;;;19.60;99.90;;;;;;5056438;28;20040;-76
2022/05/26 03:47:50;;;;;;;53.58;29.55;;;19.60;99.90;;;;;;5064626;28;20561;-76
2022/05/26 03:50:18;;;;;;;35.80;21.33;;;19.60;99.90;;;;;;5059815;28;20091;-77
2022/05/26 03:52:47;;;;;;;47.00;24.38;;;19.60;99.90;;;;;;5064429;28;20041;-76
2022/05/26 03:55:14;;;;;;;49.03;26.23;;;19.60;99.90;;;;;;5073217;28;20052;-77
2022/05/26 03:57:44;;;;;;;57.70;30.50;;;19.60;99.90;;;;;;5072039;28;20045;-77
2022/05/26 04:00:12;;;;;;;58.10;31.00;;;19.60;99.90;;;;;;5073465;28;20058;-79
2022/05/26 04:02:40;;;;;;;66.00;33.47;;;19.70;99.90;;;;;;5057443;28;20405;-76
2022/05/26 04:05:10;;;;;;;92.70;49.03;;;19.70;99.90;;;;;;5050226;28;20052;-77
2022/05/26 04:07:37;;;;;;;101.57;52.10;;;19.70;99.90;;;;;;5046220;28;20107;-77
2022/05/26 04:10:09;;;;;;;75.55;43.05;;;19.80;99.90;;;;;;5065714;28;20087;-77
2022/05/26 04:12:37;;;;;;;89.57;45.90;;;19.70;99.90;;;;;;5044319;28;20037;-77
2022/05/26 04:15:06;;;;;;;70.32;34.63;;;19.80;99.90;;;;;;5052888;28;20480;-77
2022/05/26 04:17:34;;;;;;;54.20;16.10;;;19.80;99.90;;;;;;5038047;28;20408;-77
2022/05/26 04:20:01;;;;;;;13.43;5.75;;;19.80;99.90;;;;;;5041808;28;20427;-76
2022/05/26 04:22:29;;;;;;;9.50;3.95;;;19.90;99.90;;;;;;5053039;28;20045;-77
2022/05/26 04:24:58;;;;;;;9.98;3.40;;;19.80;99.90;;;;;;5052267;28;20060;-77
2022/05/26 04:27:30;;;;;;;7.68;3.75;;;19.70;99.90;;;;;;5052954;28;20381;-77
2022/05/26 04:29:58;;;;;;;9.13;3.05;;;19.70;99.90;;;;;;5052808;28;20041;-76
2022/05/26 04:32:26;;;;;;;11.50;2.78;;;19.80;99.90;;;;;;5052157;28;20047;-75
2022/05/26 04:34:53;;;;;;;12.05;2.95;;;19.80;99.90;;;;;;5053382;28;20103;-77
2022/05/26 04:37:24;;;;;;;6.05;2.72;;;19.80;99.90;;;;;;5052714;28;20052;-77
2022/05/26 04:39:53;;;;;;;13.00;3.70;;;19.70;99.90;;;;;;5051792;28;20048;-78
2022/05/26 04:42:21;;;;;;;6.65;2.67;;;19.80;99.90;;;;;;5053167;28;20048;-77
2022/05/26 04:44:50;;;;;;;9.82;3.53;;;19.80;99.90;;;;;;5051547;28;20455;-77
2022/05/26 04:47:18;;;;;;;6.05;2.70;;;19.80;99.90;;;;;;5058070;28;20033;-77
2022/05/26 04:49:46;;;;;;;13.38;2.92;;;19.80;99.90;;;;;;5060964;28;20045;-77
2022/05/26 04:52:16;;;;;;;6.97;3.10;;;19.90;99.90;;;;;;5070303;28;20037;-77
2022/05/26 04:54:44;;;;;;;7.00;2.95;;;20.00;99.90;;;;;;5071797;28;20045;-77
2022/05/26 04:57:12;;;;;;;5.90;3.30;;;20.00;99.90;;;;;;5068041;28;20044;-76
2022/05/26 04:59:41;;;;;;;11.32;3.53;;;20.20;99.90;;;;;;5057499;28;20116;-77
2022/05/26 05:02:13;;;;;;;5.95;3.72;;;20.30;99.90;;;;;;5062855;28;20139;-77
2022/05/26 05:04:44;;;;;;;8.52;3.60;;;20.30;99.90;;;;;;5062910;28;20559;-76
2022/05/26 05:07:12;;;;;;;9.25;3.30;;;20.30;99.90;;;;;;5054749;28;20041;-76
2022/05/26 05:09:40;;;;;;;8.90;3.85;;;20.40;99.90;;;;;;5055907;28;20041;-76
2022/05/26 05:12:12;;;;;;;10.32;4.13;;;20.50;99.90;;;;;;5055574;28;20420;-76
2022/05/26 05:14:42;;;;;;;8.68;3.60;;;20.60;99.90;;;;;;5054375;28;20052;-77
2022/05/26 05:17:12;;;;;;;8.90;3.65;;;20.70;99.90;;;;;;5055919;28;20408;-77
2022/05/26 05:19:40;;;;;;;8.18;3.30;;;20.80;99.90;;;;;;5055613;28;20411;-76
2022/05/26 05:22:11;;;;;;;5.43;2.70;;;20.90;99.90;;;;;;5054111;28;20053;-76
2022/05/26 05:24:42;;;;;;;8.93;2.80;;;21.10;99.90;;;;;;5055369;28;20041;-76
2022/05/26 05:27:14;;;;;;;8.38;3.85;;;21.10;99.90;;;;;;5055558;28;20036;-76
2022/05/26 05:29:43;;;;;;;46.67;25.45;;;21.30;99.90;;;;;;5056000;28;20047;-76
2022/05/26 05:32:17;;;;;;;63.78;34.13;;;21.40;99.90;;;;;;5055228;28;20052;-75
2022/05/26 05:34:48;;;;;;;103.22;59.40;;;21.50;99.90;;;;;;5054518;28;20056;-77
2022/05/26 05:37:16;;;;;;;100.50;56.75;;;21.60;99.90;;;;;;5055787;28;20491;-76
2022/05/26 05:39:43;;;;;;;83.70;49.22;;;21.60;99.90;;;;;;5056044;28;20451;-75
2022/05/26 05:42:11;;;;;;;95.60;54.58;;;21.70;99.90;;;;;;5055159;28;20485;-76
2022/05/26 05:44:38;;;;;;;87.05;50.22;;;21.90;99.90;;;;;;5055330;28;20043;-75
2022/05/26 05:47:06;;;;;;;99.50;55.22;;;22.10;99.90;;;;;;5061583;28;20106;-80
2022/05/26 05:49:35;;;;;;;109.10;58.83;;;22.60;99.90;;;;;;5070945;28;20067;-80
2022/05/26 05:52:08;;;;;;;94.55;50.40;;;23.30;99.90;;;;;;5066631;28;20128;-81
2022/05/26 05:54:36;;;;;;;90.30;49.25;;;24.30;99.90;;;;;;5072278;28;20070;-81
2022/05/26 05:57:03;;;;;;;101.65;56.70;;;25.10;99.90;;;;;;5072896;28;20143;-80
2022/05/26 05:59:31;;;;;;;94.63;54.92;;;25.70;99.90;;;;;;5068098;28;20049;-82
2022/05/26 06:01:59;;;;;;;96.95;55.70;;;25.90;99.90;;;;;;5063619;28;20500;-81
2022/05/26 06:04:26;;;;;;;88.35;54.60;;;26.00;99.90;;;;;;5059689;28;20062;-81
2022/05/26 06:06:55;;;;;;;88.80;50.55;;;25.70;99.90;;;;;;5073153;28;20040;-81
2022/05/26 06:09:23;;;;;;;73.97;43.80;;;25.40;99.90;;;;;;5064697;28;20448;-82
2022/05/26 06:11:50;;;;;;;80.63;46.97;;;25.30;99.90;;;;;;5062816;28;20041;-81
2022/05/26 06:14:18;;;;;;;79.60;44.88;;;25.00;99.90;;;;;;5067778;28;20040;-81
2022/05/26 06:16:48;;;;;;;64.68;37.90;;;24.40;99.90;;;;;;5078704;28;20075;-80
2022/05/26 06:19:19;;;;;;;72.32;38.97;;;24.20;99.90;;;;;;5084633;28;20423;-81
2022/05/26 06:21:46;;;;;;;67.18;38.67;;;24.20;99.90;;;;;;5083784;28;20056;-80
2022/05/26 06:24:15;;;;;;;57.45;34.85;;;24.40;99.90;;;;;;5084360;28;20051;-81
2022/05/26 06:26:42;;;;;;;49.05;27.85;;;24.50;99.90;;;;;;5085955;28;20029;-81
2022/05/26 06:37:28;;;;;;;17.77;10.75;;;24.80;99.90;;;;;;5058755;28;20488;-81
2022/05/26 06:39:57;;;;;;;17.95;10.63;;;24.70;99.90;;;;;;5091765;28;20047;-80
2022/05/26 06:42:26;;;;;;;20.77;11.10;;;24.60;99.90;;;;;;5090248;28;20050;-80
2022/05/26 06:45:02;;;;;;;19.98;10.68;;;24.40;99.90;;;;;;5086944;28;20044;-79
2022/05/26 06:47:30;;;;;;;17.48;9.77;;;24.80;99.90;;;;;;5095958;28;20056;-79
2022/05/26 06:49:57;;;;;;;15.68;9.35;;;24.90;99.90;;;;;;5095578;28;20040;-79
2022/05/26 06:52:25;;;;;;;17.60;9.25;;;24.90;99.90;;;;;;5087654;28;20052;-80
2022/05/26 06:54:54;;;;;;;16.35;10.40;;;24.70;99.90;;;;;;5076566;28;20040;-81
2022/05/26 06:57:22;;;;;;;20.52;10.52;;;24.60;99.90;;;;;;5076750;28;20037;-81
2022/05/26 06:59:50;;;;;;;18.80;10.57;;;24.40;99.90;;;;;;5074643;28;20052;-81
2022/05/26 07:02:17;;;;;;;19.95;10.68;;;24.50;99.90;;;;;;5077717;28;20056;-81
2022/05/26 07:04:45;;;;;;;22.10;10.32;;;24.50;99.90;;;;;;5074364;28;20049;-79
2022/05/26 07:07:14;;;;;;;21.85;11.13;;;24.70;99.90;;;;;;5081093;28;20052;-80
2022/05/26 07:09:43;;;;;;;16.70;9.55;;;24.50;99.90;;;;;;5082259;28;20052;-81
2022/05/26 07:12:12;;;;;;;14.57;8.45;;;24.40;99.90;;;;;;5082861;28;20052;-81
2022/05/26 07:14:40;;;;;;;16.27;9.25;;;24.50;99.90;;;;;;5081373;28;20051;-81
2022/05/26 07:17:08;;;;;;;12.68;7.25;;;24.80;99.90;;;;;;5083877;28;20058;-81
2022/05/26 07:19:37;;;;;;;12.18;6.60;;;24.70;99.90;;;;;;5082800;28;20076;-81
2022/05/26 07:22:06;;;;;;;10.35;6.15;;;24.60;99.90;;;;;;5083080;28;20557;-80
2022/05/26 07:24:33;;;;;;;12.48;6.45;;;24.50;99.90;;;;;;5081407;28;20052;-82
2022/05/26 07:27:01;;;;;;;11.18;6.65;;;24.80;99.90;;;;;;5082015;28;20530;-81
2022/05/26 07:29:29;;;;;;;11.68;6.75;;;24.90;99.90;;;;;;5083199;28;20495;-80
2022/05/26 07:31:59;;;;;;;11.63;6.28;;;25.30;99.90;;;;;;5083807;28;20036;-80
2022/05/26 07:34:26;;;;;;;11.32;6.20;;;25.60;99.90;;;;;;5090466;28;20043;-80
2022/05/26 07:42:27;;;;;;;13.20;7.50;;;26.10;99.90;;;;;;5083738;28;20044;-81
2022/05/26 07:44:55;;;;;;;11.90;6.35;;;25.80;99.90;;;;;;5082720;28;20127;-82
2022/05/26 07:47:26;;;;;;;10.90;6.05;;;25.30;99.90;;;;;;5083911;28;20037;-81
2022/05/26 07:49:54;;;;;;;13.40;7.70;;;24.90;99.90;;;;;;5082550;28;20048;-81
2022/05/26 07:52:22;;;;;;;9.88;5.57;;;25.10;99.90;;;;;;5085595;28;20066;-81
2022/05/26 07:54:49;;;;;;;13.07;7.53;;;25.60;99.90;;;;;;5092897;28;20657;-81
2022/05/26 07:57:21;;;;;;;23.23;11.73;;;26.00;99.90;;;;;;5094172;28;20061;-80
2022/05/26 07:59:49;;;;;;;18.67;8.93;;;26.20;99.90;;;;;;5096480;28;20033;-80
2022/05/26 08:02:17;;;;;;;8.27;5.28;;;26.30;99.90;;;;;;5085140;28;20427;-81
2022/05/26 08:04:46;;;;;;;4.25;2.65;;;25.90;99.90;;;;;;5082958;28;20044;-83
2022/05/26 08:07:14;;;;;;;3.67;1.67;;;26.00;99.90;;;;;;5084530;28;20044;-81
2022/05/26 08:09:41;;;;;;;8.32;4.07;;;26.10;99.90;;;;;;5083821;28;20445;-81
2022/05/26 08:12:11;;;;;;;5.15;2.33;;;25.70;99.90;;;;;;5088076;28;20044;-81
2022/05/26 08:14:39;;;;;;;4.50;1.40;;;25.80;99.90;;;;;;5083333;28;20048;-81
2022/05/26 08:17:07;;;;;;;3.45;0.98;;;25.80;99.90;;;;;;5084133;28;20063;-81
2022/05/26 08:19:35;;;;;;;3.65;0.90;;;25.40;99.90;;;;;;5083767;28;20400;-81
2022/05/26 08:22:04;;;;;;;7.47;3.70;;;24.90;99.90;;;;;;5082303;28;20056;-81
2022/05/26 08:24:31;;;;;;;2.65;1.50;;;25.10;99.90;;;;;;5082499;28;20059;-81
2022/05/26 08:26:59;;;;;;;5.72;1.30;;;25.40;99.90;;;;;;5084045;28;20032;-81
2022/05/26 08:29:26;;;;;;;2.92;1.30;;;25.70;99.90;;;;;;5083034;28;20041;-81
2022/05/26 08:31:54;;;;;;;4.97;1.58;;;25.70;99.90;;;;;;5082752;28;20388;-81
2022/05/26 08:34:21;;;;;;;9.95;3.00;;;25.70;99.90;;;;;;5082078;28;20076;-81
2022/05/26 08:36:49;;;;;;;3.42;1.95;;;25.90;99.90;;;;;;5075165;28;20041;-81
2022/05/26 08:39:19;;;;;;;5.03;3.08;;;26.20;99.90;;;;;;5063178;28;20057;-80
2022/05/26 08:41:49;;;;;;;6.85;2.70;;;26.40;99.90;;;;;;5063985;28;20195;-80
2022/05/26 08:44:27;;;;;;;10.18;6.18;;;26.10;99.90;;;;;;5066441;28;20053;-80
2022/05/26 08:47:01;;;;;;;5.30;2.22;;;25.80;99.90;;;;;;5070238;28;20488;-80
2022/05/26 08:49:35;;;;;;;2.78;1.60;;;25.70;99.90;;;;;;5078833;28;20045;-79
2022/05/26 08:52:09;;;;;;;5.38;2.20;;;25.30;99.90;;;;;;5066963;28;20044;-81
2022/05/26 08:54:43;;;;;;;7.97;2.22;;;25.10;99.90;;;;;;5062542;28;20055;-81
2022/05/26 08:57:19;;;;;;;7.38;3.25;;;25.20;99.90;;;;;;5062999;28;20052;-80
2022/05/26 08:59:47;;;;;;;2.08;1.40;;;25.60;99.90;;;;;;5062808;28;20520;-81
2022/05/26 09:02:26;;;;;;;3.35;1.73;;;25.90;99.90;;;;;;5062115;28;20049;-80
2022/05/26 09:04:57;;;;;;;5.93;2.60;;;26.10;99.90;;;;;;5063650;28;20091;-79
2022/05/26 09:13:07;;;;;;;2.42;1.02;;;26.40;99.90;;;;;;5042299;28;20042;-80
2022/05/26 09:15:37;;;;;;;5.78;1.08;;;26.10;99.90;;;;;;5042801;28;20552;-81
2022/05/26 09:18:12;;;;;;;8.00;1.50;;;26.10;99.90;;;;;;5053340;28;20041;-80
2022/05/26 09:20:42;;;;;;;1.70;1.13;;;26.20;99.90;;;;;;5063139;28;20115;-79
2022/05/26 09:23:12;;;;;;;3.30;1.42;;;26.00;99.90;;;;;;5061535;28;20301;-80
2022/05/26 09:25:46;;;;;;;3.25;2.30;;;26.00;99.90;;;;;;5063241;28;20055;-80
2022/05/26 09:28:14;;;;;;;3.20;1.70;;;25.90;99.90;;;;;;5063083;28;20044;-80
2022/05/26 09:30:41;;;;;;;10.63;4.20;;;25.90;99.90;;;;;;5060800;28;20044;-80
2022/05/26 09:33:20;;;;;;;4.78;2.28;;;26.00;99.90;;;;;;5062170;28;20045;-80
2022/05/26 09:35:48;;;;;;;5.00;2.75;;;26.30;99.90;;;;;;5062265;28;20049;-80
2022/05/26 09:38:20;;;;;;;2.63;1.67;;;26.40;99.90;;;;;;5066347;28;20037;-81
2022/05/26 09:40:50;;;;;;;3.00;1.05;;;26.50;99.90;;;;;;5066997;28;20045;-80
2022/05/26 09:43:24;;;;;;;4.05;2.20;;;25.90;99.90;;;;;;5067921;28;20040;-80
2022/05/26 09:45:54;;;;;;;2.40;1.05;;;25.90;99.90;;;;;;5076975;28;20029;-81
2022/05/26 09:48:33;;;;;;;4.70;3.00;;;26.20;99.90;;;;;;5077480;28;20025;-80
2022/05/26 09:51:12;;;;;;;4.85;2.25;;;26.40;99.90;;;;;;5078908;28;20025;-80
2022/05/26 09:53:42;;;;;;;4.53;2.50;;;26.40;99.90;;;;;;5079437;28;20028;-80
2022/05/26 09:56:13;;;;;;;1.05;0.90;;;25.90;99.90;;;;;;5077428;28;20037;-80
2022/05/26 09:58:43;;;;;;;4.18;1.75;;;25.80;99.90;;;;;;5077285;28;20075;-81
2022/05/26 10:01:40;;;;;;;3.25;1.63;;;25.70;99.90;;;;;;5068170;28;20021;-80
2022/05/26 10:04:17;;;;;;;4.65;1.27;;;25.90;99.90;;;;;;5077655;28;20037;-80
2022/05/26 10:06:53;;;;;;;4.75;2.65;;;25.70;99.90;;;;;;5078865;28;20037;-80
2022/05/26 10:09:29;;;;;;;2.22;1.20;;;25.90;99.90;;;;;;5079184;28;20032;-80
2022/05/26 10:12:09;;;;;;;2.15;1.42;;;25.70;99.90;;;;;;5078640;28;20033;-79
2022/05/26 10:15:03;;;;;;;3.50;2.05;;;25.90;99.90;;;;;;5078052;28;20045;-81
2022/05/26 10:17:43;;;;;;;7.22;1.48;;;26.20;99.90;;;;;;5077724;28;20053;-80
2022/05/26 10:20:26;;;;;;;2.55;1.40;;;26.20;99.90;;;;;;5074864;28;20112;-79
2022/05/26 10:23:05;;;;;;;4.40;2.60;;;26.30;99.90;;;;;;5068072;28;20037;-79
2022/05/26 10:25:38;;;;;;;2.25;1.40;;;26.00;99.90;;;;;;5058875;28;20045;-80
2022/05/26 10:28:47;;;;;;;3.30;1.48;;;25.90;99.90;;;;;;5074340;28;20117;-80
2022/05/26 10:31:26;;;;;;;5.93;1.77;;;25.50;99.90;;;;;;5078190;28;20051;-79
2022/05/26 10:34:15;;;;;;;4.28;2.50;;;25.20;99.90;;;;;;5075585;28;20052;-81
2022/05/26 10:36:58;;;;;;;5.22;2.65;;;25.30;99.90;;;;;;5076189;28;20025;-81
2022/05/26 10:39:37;;;;;;;12.70;3.17;;;25.50;99.90;;;;;;5070063;28;20041;-81
2022/05/26 10:42:09;;;;;;;2.92;1.50;;;25.60;99.90;;;;;;5067727;28;20528;-81
2022/05/26 10:44:41;;;;;;;5.03;1.52;;;25.50;99.90;;;;;;5063896;28;20055;-79
2022/05/26 10:47:13;;;;;;;3.60;1.85;;;25.10;99.90;;;;;;5062880;28;20056;-81
2022/05/26 10:49:47;;;;;;;4.65;2.40;;;25.10;99.90;;;;;;5066324;28;20480;-81
2022/05/26 10:52:18;;;;;;;6.93;3.53;;;25.30;99.90;;;;;;5066185;28;20049;-80
2022/05/26 10:54:52;;;;;;;7.35;2.92;;;25.50;99.90;;;;;;5066380;28;20056;-80
2022/05/26 10:57:25;;;;;;;5.65;2.50;;;25.60;99.90;;;;;;5073501;28;20142;-80
2022/05/26 11:00:05;;;;;;;4.45;2.20;;;25.70;99.90;;;;;;5071636;28;20526;-80
2022/05/26 11:02:39;;;;;;;4.43;1.85;;;26.00;99.90;;;;;;5069481;28;20052;-80
2022/05/26 11:05:10;;;;;;;2.85;1.80;;;26.10;99.90;;;;;;5051894;28;20061;-81
2022/05/26 11:07:42;;;;;;;25.00;4.30;;;26.60;99.90;;;;;;5064148;28;20041;-80
2022/05/26 11:10:15;;;;;;;3.95;2.20;;;27.00;99.90;;;;;;5067755;28;20044;-82
2022/05/26 11:12:47;;;;;;;3.85;1.70;;;27.30;99.90;;;;;;5061431;28;20056;-82
2022/05/26 11:18:14;;;;;;;6.22;3.00;;;27.00;99.90;;;;;;5063302;28;20041;-82
2022/05/26 11:20:46;;;;;;;4.68;2.10;;;27.00;99.90;;;;;;5061385;28;20045;-82
2022/05/26 11:23:18;;;;;;;5.32;2.40;;;26.80;99.90;;;;;;5039634;28;20061;-81
2022/05/26 11:25:55;;;;;;;5.43;2.83;;;26.30;99.90;;;;;;5043042;28;20056;-82
2022/05/26 11:28:31;;;;;;;5.68;2.50;;;26.50;99.90;;;;;;5043960;28;20056;-83
2022/05/26 11:36:47;;;;;;;5.28;2.15;;;26.50;99.90;;;;;;5062652;28;20083;-81
2022/05/26 11:39:22;;;;;;;5.43;3.05;;;26.40;99.90;;;;;;5062786;28;20037;-81
2022/05/26 11:41:53;;;;;;;4.07;2.83;;;26.20;99.90;;;;;;5063365;28;20064;-83
2022/05/26 11:44:34;;;;;;;7.40;4.43;;;26.30;99.90;;;;;;5062895;28;20045;-82
2022/05/26 11:47:29;;;;;;;5.63;3.75;;;26.50;99.90;;;;;;5041397;28;20045;-81
2022/05/26 11:50:26;;;;;;;7.97;3.00;;;26.50;99.90;;;;;;5040307;28;20049;-82
2022/05/26 11:53:04;;;;;;;5.10;3.40;;;26.50;99.90;;;;;;5052035;28;20464;-82
2022/05/26 11:55:45;;;;;;;4.55;2.65;;;26.70;99.90;;;;;;5040687;28;20049;-82
2022/05/26 11:58:38;;;;;;;6.57;3.25;;;26.90;99.90;;;;;;5039253;28;20084;-80
2022/05/26 12:01:33;;;;;;;10.00;3.60;;;27.10;99.90;;;;;;5036894;28;20092;-81
2022/05/26 12:04:36;;;;;;;6.68;2.70;;;27.10;99.90;;;;;;5054931;28;20118;-81
2022/05/26 12:07:05;;;;;;;4.38;2.35;;;27.20;99.90;;;;;;4997878;28;20053;-81
2022/05/26 12:09:41;;;;;;;14.02;8.30;;;27.30;99.90;;;;;;4981786;28;20586;-81
2022/05/26 12:12:27;;;;;;;15.15;11.43;;;27.40;99.90;;;;;;5047269;28;20053;-83
2022/05/26 12:15:06;;;;;;;4.65;2.38;;;27.80;99.90;;;;;;5079026;28;20146;-81
2022/05/26 12:17:38;;;;;;;8.48;3.08;;;27.80;99.90;;;;;;5074890;28;20041;-83
2022/05/26 12:20:38;;;;;;;5.55;2.55;;;27.90;99.90;;;;;;5066826;28;20040;-84
2022/05/26 12:23:28;;;;;;;7.70;2.75;;;27.90;99.90;;;;;;5067427;28;20048;-82
2022/05/26 12:26:30;;;;;;;3.97;1.70;;;27.70;99.90;;;;;;5060706;28;20057;-82
2022/05/26 12:29:31;;;;;;;3.90;1.27;;;27.20;99.90;;;;;;5063741;28;20037;-82
2022/05/26 12:32:08;;;;;;;2.33;1.40;;;26.60;99.90;;;;;;5045272;28;20099;-81
2022/05/26 12:34:43;;;;;;;2.70;1.67;;;26.10;99.90;;;;;;5057250;28;20043;-78
2022/05/26 12:37:18;;;;;;;;;;;25.80;99.90;;;;;;5064852;28;20044;-80
2022/05/26 12:40:28;;;;;;;4.82;1.80;;;25.70;99.90;;;;;;5064413;28;19967;-80
2022/05/26 12:43:37;;;;;;;2.50;1.65;;;25.60;99.90;;;;;;5062682;28;20107;-81
2022/05/26 12:46:25;;;;;;;4.43;1.85;;;25.60;99.90;;;;;;5064101;28;20098;-80
2022/05/26 12:49:04;;;;;;;3.17;2.03;;;25.80;99.90;;;;;;5066700;28;20068;-81
2022/05/26 12:51:36;;;;;;;4.53;2.28;;;26.00;99.90;;;;;;5065847;28;20098;-80
2022/05/26 12:54:09;;;;;;;4.10;1.40;;;26.20;99.90;;;;;;5067685;28;20041;-81
2022/05/26 12:56:47;;;;;;;3.88;1.90;;;26.00;99.90;;;;;;5063229;28;20048;-81
2022/05/26 12:59:16;;;;;;;2.85;1.90;;;25.90;99.90;;;;;;5065472;28;20076;-81
2022/05/26 13:01:48;;;;;;;3.92;2.17;;;25.70;99.90;;;;;;5063231;28;20041;-81
2022/05/26 13:04:21;;;;;;;5.82;2.05;;;25.70;99.90;;;;;;5063278;28;20037;-81
2022/05/26 13:06:51;;;;;;;5.00;2.83;;;25.90;99.90;;;;;;5064263;28;20059;-81
2022/05/26 13:09:25;;;;;;;3.63;2.03;;;26.10;99.90;;;;;;5065876;28;20056;-81
2022/05/26 13:11:53;;;;;;;3.90;1.95;;;26.20;99.90;;;;;;5067761;28;20045;-81
2022/05/26 13:14:34;;;;;;;4.50;1.80;;;26.00;99.90;;;;;;5073525;28;20041;-80
2022/05/26 13:17:03;;;;;;;3.90;1.65;;;25.90;99.90;;;;;;5078800;28;20037;-80
2022/05/26 13:19:31;;;;;;;3.20;1.52;;;25.90;99.90;;;;;;5077156;28;20032;-80
2022/05/26 13:21:59;;;;;;;2.90;1.40;;;25.80;99.90;;;;;;5072591;28;20059;-81
2022/05/26 13:24:30;;;;;;;3.20;1.65;;;25.80;99.90;;;;;;5065207;28;20051;-81
2022/05/26 13:27:00;;;;;;;6.63;2.25;;;25.90;99.90;;;;;;5064422;28;20048;-81
2022/05/26 13:29:29;;;;;;;4.28;1.77;;;26.10;99.90;;;;;;5064383;28;20033;-81
2022/05/26 13:34:48;;;;;;;2.47;1.42;;;26.20;99.90;;;;;;5065011;28;20045;-81
2022/05/26 13:37:19;;;;;;;2.70;1.50;;;26.10;99.90;;;;;;5064405;28;20064;-80
2022/05/26 13:40:07;;;;;;;4.72;1.83;;;26.00;99.90;;;;;;5064222;28;20037;-81
2022/05/26 13:42:36;;;;;;;4.57;1.48;;;25.90;99.90;;;;;;5064487;28;20076;-80
2022/05/26 13:45:06;;;;;;;4.70;1.65;;;25.90;99.90;;;;;;5066030;28;20041;-80
2022/05/26 13:47:33;;;;;;;4.22;1.48;;;25.80;99.90;;;;;;5062923;28;20055;-81
2022/05/26 13:50:03;;;;;;;5.88;2.00;;;25.70;99.90;;;;;;5065599;28;20057;-80